Sunray, Texas
Current Conditions -  °F | °C
As of 12:51 PM on Thursday 30 Oct 2014 (Local Time) from KBGD Reporting Station
Clear Clear  
Wind Chill: 69°   Ceiling: Unl
Heat Index: 69°   Visibility: 10mi
Dew Point: 28°   Wind: 17mph
Humidity: 22%   Direction: 30°NNE
Pressure: 30.27"   Gusts: 23mph
Location:  36.02°N, 101.82°W
Report Text: KBGD 301751Z AUTO 03015G20KT 10SM CLR 21/M02 A3027 RMK AO2 SLP223 T02061022 10206 20078 51008
Loading
Personal Weather Stations






























Interactive Weather Map New forecast layout! Learn more

10-Day Weather Forecast

Advertisements
Track Severe Weather on mobile